Teoman A — TCA4008 — position and weather

sailwx.info

Track history (hours):
 
Tides and Currents Weather Stations Pressure Air Temp Water Temp Dewpoint Dewpoint Depression Visibility Wind Speed Wind Dir Waves Ship Positions

Teoman A

Last reported at 2018-Jan-11 00:58 UTC. Time now 2018-Jan-20 17:13 UTC.
Position N 35°28' E 026°25'.
Warning: this ship's position is 9 days out of date.

Length 199 m; draft 10.6 m.

Type: Ship (hazmat cat A). MMSI: 271044450.

Date/timePositionNaut miles runAvg speedWind from/ knotsBaromVisibWave heightAir tempDewpointWater temp
2018-Jan-11 00:58N 35°28' E 026°25'511.4
2018-Jan-11 00:29N 35°31' E 026°20'611.6
2018-Jan-11 00:00N 35°33' E 026°14'611.4
2018-Jan-10 23:30N 35°36' E 026°08'611.3
2018-Jan-10 23:00N 35°40' E 026°02'611.2
2018-Jan-10 22:30N 35°42' E 025°56'611.5
2018-Jan-10 22:00N 35°45' E 025°50'611.5
2018-Jan-10 21:30N 35°49' E 025°44'611.5
2018-Jan-10 21:00N 35°52' E 025°38'611.6
2018-Jan-10 20:30N 35°55' E 025°33'611.3
2018-Jan-10 20:00N 35°58' E 025°26'511.0
2018-Jan-10 19:31N 36°01' E 025°20'611.8
2018-Jan-10 19:00N 36°04' E 025°14'611.9
2018-Jan-10 18:30N 36°07' E 025°08'612.2
2018-Jan-10 18:00N 36°10' E 025°02'612.2
2018-Jan-10 17:30N 36°13' E 024°55'612.0
2018-Jan-10 17:00N 36°17' E 024°49'612.1
2018-Jan-10 16:30N 36°20' E 024°43'612.0
2018-Jan-10 16:00N 36°23' E 024°36'612.0
2018-Jan-10 15:30N 36°26' E 024°30'612.2
2018-Jan-10 15:00N 36°29' E 024°23'611.7
2018-Jan-10 14:30N 36°32' E 024°17'611.2
2018-Jan-10 14:00N 36°37' E 024°13'611.6
2018-Jan-10 13:30N 36°42' E 024°10'611.9
2018-Jan-10 13:00N 36°47' E 024°07'612.2
2018-Jan-10 12:30N 36°53' E 024°05'611.7
2018-Jan-10 12:01N 36°59' E 024°02'611.7
2018-Jan-10 11:30N 37°04' E 023°59'612.3
2018-Jan-10 10:59N 37°10' E 023°57'612.0
2018-Jan-10 10:30N 37°16' E 023°55'812.0
2018-Jan-10 09:51N 37°23' E 023°51'412.0
2018-Jan-10 09:30N 37°27' E 023°49'611.9
2018-Jan-10 09:00N 37°32' E 023°46'611.9
2018-Jan-10 08:30N 37°38' E 023°43'611.8
2018-Jan-10 08:00N 37°43' E 023°40'612.1
2018-Jan-10 07:30N 37°49' E 023°37'611.6
2018-Jan-10 07:00N 37°55' E 023°37'3 5.7
2018-Jan-10 06:30N 37°57' E 023°35'0 0.2
2018-Jan-10 05:58N 37°57' E 023°35'0 0.0
2018-Jan-10 05:28N 37°57' E 023°35'0 0.0
2018-Jan-10 04:58N 37°57' E 023°35'0 0.0
2018-Jan-10 04:28N 37°57' E 023°35'0 0.0
2018-Jan-10 03:58N 37°57' E 023°35'0 0.0
2018-Jan-10 03:28N 37°57' E 023°35'0 0.0
2018-Jan-10 02:58N 37°57' E 023°35'0 0.0
2018-Jan-10 02:28N 37°57' E 023°35'0 0.0
2018-Jan-10 01:58N 37°57' E 023°35'0 0.0
2018-Jan-10 01:28N 37°57' E 023°35'0 0.0
2018-Jan-10 00:58N 37°57' E 023°35'0 0.0
2018-Jan-10 00:28N 37°57' E 023°35'0 0.0
2018-Jan-09 23:58N 37°57' E 023°35'0 0.0
2018-Jan-09 23:28N 37°57' E 023°35'0 0.0
2018-Jan-09 22:58N 37°57' E 023°35'0 0.0
2018-Jan-09 22:28N 37°57' E 023°35'0 0.0
2018-Jan-09 21:58N 37°57' E 023°35'0 0.0
2018-Jan-09 21:30N 37°57' E 023°35'1 2.4
2018-Jan-09 21:01N 37°56' E 023°35'2 3.5
2018-Jan-09 20:31N 37°55' E 023°36'3 5.0
2018-Jan-09 20:00N 37°53' E 023°38'611.9
2018-Jan-09 19:30N 37°47' E 023°41'611.9
2018-Jan-09 19:00N 37°42' E 023°44'612.0
2018-Jan-09 18:30N 37°36' E 023°45'612.3
2018-Jan-09 18:00N 37°30' E 023°46'611.6
2018-Jan-09 17:28N 37°24' E 023°45'611.8
2018-Jan-09 16:58N 37°18' E 023°43'511.7
2018-Jan-09 16:30N 37°13' E 023°42'611.8
2018-Jan-09 16:00N 37°07' E 023°40'611.7
2018-Jan-09 15:30N 37°01' E 023°38'611.5
2018-Jan-09 15:00N 36°56' E 023°36'611.8
2018-Jan-09 14:30N 36°51' E 023°32'611.6
2018-Jan-09 13:59N 36°45' E 023°29'511.6
2018-Jan-09 13:30N 36°40' E 023°26'1511.9
2018-Jan-09 12:14N 36°27' E 023°17'311.9
2018-Jan-09 11:58N 36°25' E 023°14'610.9
2018-Jan-09 11:25N 36°24' E 023°07'712.1
2018-Jan-09 10:53N 36°24' E 022°59'32011.6
2018-Jan-08 07:15N 37°39' E 016°29'311.4
2018-Jan-08 07:00N 37°40' E 016°26'611.4
2018-Jan-08 06:30N 37°42' E 016°19'611.7
2018-Jan-08 06:00N 37°43' E 016°12'612.2
2018-Jan-08 05:30N 37°45' E 016°04'612.1
2018-Jan-08 05:00N 37°46' E 015°57'611.8
2018-Jan-08 04:30N 37°48' E 015°49'611.8
2018-Jan-08 04:00N 37°49' E 015°42'511.0
2018-Jan-08 03:31N 37°53' E 015°38'611.2
2018-Jan-08 03:00N 37°59' E 015°35'510.5
2018-Jan-08 02:30N 38°04' E 015°33'5 9.7
2018-Jan-08 02:00N 38°08' E 015°35'511.0
2018-Jan-08 01:30N 38°14' E 015°36'611.5
2018-Jan-08 01:00N 38°18' E 015°40'5 9.4
2018-Jan-08 00:31N 38°22' E 015°37'510.3
2018-Jan-08 00:01N 38°26' E 015°32'611.1
2018-Jan-07 23:31N 38°30' E 015°27'611.1
2018-Jan-07 23:00N 38°33' E 015°22'611.2
2018-Jan-07 22:31N 38°37' E 015°17'611.3
2018-Jan-07 22:01N 38°41' E 015°12'611.3
2018-Jan-07 21:30N 38°45' E 015°06'511.0
2018-Jan-07 21:00N 38°48' E 015°00'611.3
2018-Jan-07 20:30N 38°51' E 014°54'611.6
2018-Jan-07 20:00N 38°54' E 014°48'611.3
2018-Jan-07 19:26N 38°57' E 014°41'1410.8
2018-Jan-07 18:10N 39°04' E 014°25'210.9
2018-Jan-07 17:58N 39°05' E 014°23'48511.0
2018-Jan-05 22:06N 43°08' E 005°06'311.9
2018-Jan-05 21:53N 43°09' E 005°03'410.9
2018-Jan-05 21:30N 43°13' E 005°01'611.4
2018-Jan-05 21:00N 43°19' E 004°59'5 9.4
2018-Jan-05 20:30N 43°23' E 004°57'5 9.2
2018-Jan-05 20:00N 43°25' E 004°51'0 0.0
2018-Jan-05 19:30N 43°24' E 004°51'0 0.0
2018-Jan-05 19:00N 43°24' E 004°51'0 0.0
2018-Jan-05 18:30N 43°25' E 004°51'0 0.0
2018-Jan-05 18:00N 43°24' E 004°51'0 0.0
2018-Jan-05 17:30N 43°25' E 004°51'0 0.0
2018-Jan-05 17:00N 43°24' E 004°51'0 0.0
2018-Jan-05 16:30N 43°24' E 004°51'0 0.0
2018-Jan-05 16:00N 43°25' E 004°51'0 0.0
2018-Jan-05 15:30N 43°24' E 004°51'0 0.0
2018-Jan-05 15:00N 43°24' E 004°51'0 0.0
2018-Jan-05 14:30N 43°24' E 004°51'0 0.0
2018-Jan-05 14:00N 43°25' E 004°51'0 0.0
2018-Jan-05 13:30N 43°25' E 004°51'0 0.0
2018-Jan-05 13:00N 43°25' E 004°51'0 0.0
2018-Jan-05 12:30N 43°24' E 004°51'0 0.0
2018-Jan-05 12:00N 43°24' E 004°51'0 0.0
2018-Jan-05 11:27N 43°24' E 004°51'0 0.0
2018-Jan-05 11:00N 43°24' E 004°51'0 0.0
2018-Jan-05 10:30N 43°24' E 004°51'0 0.0
2018-Jan-05 10:00N 43°24' E 004°51'0 0.0
2018-Jan-05 09:30N 43°24' E 004°51'0 0.0
2018-Jan-05 09:00N 43°25' E 004°51'0 0.0
2018-Jan-05 08:30N 43°24' E 004°51'0 0.0
2018-Jan-05 08:00N 43°24' E 004°51'0 0.0
2018-Jan-05 07:30N 43°24' E 004°51'0 0.0
2018-Jan-05 07:00N 43°24' E 004°51'0 0.0
2018-Jan-05 06:30N 43°24' E 004°51'0 0.0
2018-Jan-05 06:00N 43°24' E 004°51'0 0.0
2018-Jan-05 05:30N 43°24' E 004°51'0 0.0
2018-Jan-05 05:00N 43°24' E 004°51'0 0.0
2018-Jan-05 04:30N 43°24' E 004°51'0 0.0
2018-Jan-05 04:00N 43°24' E 004°51'0 0.0
2018-Jan-05 03:30N 43°24' E 004°51'0 0.0
2018-Jan-05 03:00N 43°24' E 004°51'0 0.3
2018-Jan-05 02:30N 43°24' E 004°51'3 6.4
2018-Jan-05 02:00N 43°24' E 004°55'5 9.5
2018-Jan-05 01:30N 43°20' E 004°59'510.5
2018-Jan-05 01:00N 43°15' E 005°02'611.5
2018-Jan-05 00:30N 43°09' E 005°02'510.8
2018-Jan-05 00:00N 43°05' E 004°57'612.9
2018-Jan-04 23:30N 43°05' E 004°48'612.8
2018-Jan-04 23:00N 43°05' E 004°40'612.7
2018-Jan-04 22:30N 43°05' E 004°31'14810.2
2018-Jan-04 07:58N 41°17' E 002°15'4 7.9
2018-Jan-04 07:30N 41°18' E 002°10'1 0.1
2018-Jan-03 19:02N 41°19' E 002°11'0 5.6
2018-Jan-03 19:00N 41°19' E 002°11'0 0.4
2018-Jan-03 18:30N 41°19' E 002°12'0 0.2
2018-Jan-03 17:57N 41°19' E 002°12'0 0.1
2018-Jan-03 17:27N 41°19' E 002°12'0 0.0
2018-Jan-03 16:57N 41°19' E 002°12'0 0.0
2018-Jan-03 16:30N 41°19' E 002°12'0 0.0
2018-Jan-03 16:00N 41°19' E 002°12'0 0.0
2018-Jan-03 15:30N 41°19' E 002°12'0 0.0
2018-Jan-03 15:00N 41°19' E 002°12'0 0.0
2018-Jan-03 14:27N 41°19' E 002°12'0 0.0
2018-Jan-03 14:00N 41°18' E 002°12'0 0.0
2018-Jan-03 13:27N 41°18' E 002°12'0 0.2
2018-Jan-03 13:00N 41°19' E 002°12'0 0.0
2018-Jan-03 12:30N 41°19' E 002°12'0 0.1
2018-Jan-03 11:48N 41°19' E 002°12'0 0.1
2018-Jan-03 11:30N 41°18' E 002°12'0 0.1
2018-Jan-03 11:00N 41°19' E 002°12'0 0.1
2018-Jan-03 10:30N 41°18' E 002°12'0 0.0
2018-Jan-03 10:00N 41°19' E 002°12'0 0.0
2018-Jan-03 09:21N 41°19' E 002°12'0 0.1
2018-Jan-03 08:51N 41°19' E 002°12'0 0.0
2018-Jan-03 08:18N 41°19' E 002°12'0 0.0
2018-Jan-03 07:54N 41°19' E 002°12'0 0.0
2018-Jan-03 07:24N 41°19' E 002°12'0 0.0
2018-Jan-03 06:54N 41°19' E 002°12'0 0.1
2018-Jan-03 06:24N 41°19' E 002°12'0 0.1
2018-Jan-03 05:54N 41°19' E 002°12'0 0.0
2018-Jan-03 05:21N 41°19' E 002°12'0 0.1
2018-Jan-03 04:57N 41°19' E 002°12'0 0.1
2018-Jan-03 04:24N 41°18' E 002°12'0 0.1
2018-Jan-03 03:57N 41°19' E 002°12'0 0.1
2018-Jan-03 02:39N 41°18' E 002°12'0 0.0
2018-Jan-03 02:27N 41°18' E 002°12'0 0.2
2018-Jan-03 02:00N 41°18' E 002°12'2 2.9
2018-Jan-03 01:28N 41°17' E 002°12'511.9
2018-Jan-03 01:00N 41°12' E 002°09'713.2
2018-Jan-03 00:30N 41°07' E 002°04'713.4
2018-Jan-03 00:00N 41°02' E 001°58'713.4
2018-Jan-02 23:30N 40°57' E 001°52'612.6
2018-Jan-02 23:00N 40°52' E 001°47'  
Track history (hours):
 
Tides and Currents Weather Stations Pressure Air Temp Water Temp Dewpoint Dewpoint Depression Visibility Wind Speed Wind Dir Waves Ship Positions

Teoman A

Last reported at 2018-Jan-11 00:58 UTC. Time now 2018-Jan-20 17:13 UTC.
Position N 35°28' E 026°25'.
Warning: this ship's position is 9 days out of date.

Length 199 m; draft 10.6 m.

Type: Ship (hazmat cat A). MMSI: 271044450.

Date/timePositionNaut miles runAvg speedWind from/ knotsBaromVisibWave heightAir tempDewpointWater temp
2018-Jan-11 00:58N 35°28' E 026°25'511.4
2018-Jan-11 00:29N 35°31' E 026°20'611.6
2018-Jan-11 00:00N 35°33' E 026°14'611.4
2018-Jan-10 23:30N 35°36' E 026°08'611.3
2018-Jan-10 23:00N 35°40' E 026°02'611.2
2018-Jan-10 22:30N 35°42' E 025°56'611.5
2018-Jan-10 22:00N 35°45' E 025°50'611.5
2018-Jan-10 21:30N 35°49' E 025°44'611.5
2018-Jan-10 21:00N 35°52' E 025°38'611.6
2018-Jan-10 20:30N 35°55' E 025°33'611.3
2018-Jan-10 20:00N 35°58' E 025°26'511.0
2018-Jan-10 19:31N 36°01' E 025°20'611.8
2018-Jan-10 19:00N 36°04' E 025°14'611.9
2018-Jan-10 18:30N 36°07' E 025°08'612.2
2018-Jan-10 18:00N 36°10' E 025°02'612.2
2018-Jan-10 17:30N 36°13' E 024°55'612.0
2018-Jan-10 17:00N 36°17' E 024°49'612.1
2018-Jan-10 16:30N 36°20' E 024°43'612.0
2018-Jan-10 16:00N 36°23' E 024°36'612.0
2018-Jan-10 15:30N 36°26' E 024°30'612.2
2018-Jan-10 15:00N 36°29' E 024°23'611.7
2018-Jan-10 14:30N 36°32' E 024°17'611.2
2018-Jan-10 14:00N 36°37' E 024°13'611.6
2018-Jan-10 13:30N 36°42' E 024°10'611.9
2018-Jan-10 13:00N 36°47' E 024°07'612.2
2018-Jan-10 12:30N 36°53' E 024°05'611.7
2018-Jan-10 12:01N 36°59' E 024°02'611.7
2018-Jan-10 11:30N 37°04' E 023°59'612.3
2018-Jan-10 10:59N 37°10' E 023°57'612.0
2018-Jan-10 10:30N 37°16' E 023°55'812.0
2018-Jan-10 09:51N 37°23' E 023°51'412.0
2018-Jan-10 09:30N 37°27' E 023°49'611.9
2018-Jan-10 09:00N 37°32' E 023°46'611.9
2018-Jan-10 08:30N 37°38' E 023°43'611.8
2018-Jan-10 08:00N 37°43' E 023°40'612.1
2018-Jan-10 07:30N 37°49' E 023°37'611.6
2018-Jan-10 07:00N 37°55' E 023°37'3 5.7
2018-Jan-10 06:30N 37°57' E 023°35'0 0.2
2018-Jan-10 05:58N 37°57' E 023°35'0 0.0
2018-Jan-10 05:28N 37°57' E 023°35'0 0.0
2018-Jan-10 04:58N 37°57' E 023°35'0 0.0
2018-Jan-10 04:28N 37°57' E 023°35'0 0.0
2018-Jan-10 03:58N 37°57' E 023°35'0 0.0
2018-Jan-10 03:28N 37°57' E 023°35'0 0.0
2018-Jan-10 02:58N 37°57' E 023°35'0 0.0
2018-Jan-10 02:28N 37°57' E 023°35'0 0.0
2018-Jan-10 01:58N 37°57' E 023°35'0 0.0
2018-Jan-10 01:28N 37°57' E 023°35'0 0.0
2018-Jan-10 00:58N 37°57' E 023°35'0 0.0
2018-Jan-10 00:28N 37°57' E 023°35'0 0.0
2018-Jan-09 23:58N 37°57' E 023°35'0 0.0
2018-Jan-09 23:28N 37°57' E 023°35'0 0.0
2018-Jan-09 22:58N 37°57' E 023°35'0 0.0
2018-Jan-09 22:28N 37°57' E 023°35'0 0.0
2018-Jan-09 21:58N 37°57' E 023°35'0 0.0
2018-Jan-09 21:30N 37°57' E 023°35'1 2.4
2018-Jan-09 21:01N 37°56' E 023°35'2 3.5
2018-Jan-09 20:31N 37°55' E 023°36'3 5.0
2018-Jan-09 20:00N 37°53' E 023°38'611.9
2018-Jan-09 19:30N 37°47' E 023°41'611.9
2018-Jan-09 19:00N 37°42' E 023°44'612.0
2018-Jan-09 18:30N 37°36' E 023°45'612.3
2018-Jan-09 18:00N 37°30' E 023°46'611.6
2018-Jan-09 17:28N 37°24' E 023°45'611.8
2018-Jan-09 16:58N 37°18' E 023°43'511.7
2018-Jan-09 16:30N 37°13' E 023°42'611.8
2018-Jan-09 16:00N 37°07' E 023°40'611.7
2018-Jan-09 15:30N 37°01' E 023°38'611.5
2018-Jan-09 15:00N 36°56' E 023°36'611.8
2018-Jan-09 14:30N 36°51' E 023°32'611.6
2018-Jan-09 13:59N 36°45' E 023°29'511.6
2018-Jan-09 13:30N 36°40' E 023°26'1511.9
2018-Jan-09 12:14N 36°27' E 023°17'311.9
2018-Jan-09 11:58N 36°25' E 023°14'610.9
2018-Jan-09 11:25N 36°24' E 023°07'712.1
2018-Jan-09 10:53N 36°24' E 022°59'32011.6
2018-Jan-08 07:15N 37°39' E 016°29'311.4
2018-Jan-08 07:00N 37°40' E 016°26'611.4
2018-Jan-08 06:30N 37°42' E 016°19'611.7
2018-Jan-08 06:00N 37°43' E 016°12'612.2
2018-Jan-08 05:30N 37°45' E 016°04'612.1
2018-Jan-08 05:00N 37°46' E 015°57'611.8
2018-Jan-08 04:30N 37°48' E 015°49'611.8
2018-Jan-08 04:00N 37°49' E 015°42'511.0
2018-Jan-08 03:31N 37°53' E 015°38'611.2
2018-Jan-08 03:00N 37°59' E 015°35'510.5
2018-Jan-08 02:30N 38°04' E 015°33'5 9.7
2018-Jan-08 02:00N 38°08' E 015°35'511.0
2018-Jan-08 01:30N 38°14' E 015°36'611.5
2018-Jan-08 01:00N 38°18' E 015°40'5 9.4
2018-Jan-08 00:31N 38°22' E 015°37'510.3
2018-Jan-08 00:01N 38°26' E 015°32'611.1
2018-Jan-07 23:31N 38°30' E 015°27'611.1
2018-Jan-07 23:00N 38°33' E 015°22'611.2
2018-Jan-07 22:31N 38°37' E 015°17'611.3
2018-Jan-07 22:01N 38°41' E 015°12'611.3
2018-Jan-07 21:30N 38°45' E 015°06'511.0
2018-Jan-07 21:00N 38°48' E 015°00'611.3
2018-Jan-07 20:30N 38°51' E 014°54'611.6
2018-Jan-07 20:00N 38°54' E 014°48'611.3
2018-Jan-07 19:26N 38°57' E 014°41'1410.8
2018-Jan-07 18:10N 39°04' E 014°25'210.9
2018-Jan-07 17:58N 39°05' E 014°23'48511.0
2018-Jan-05 22:06N 43°08' E 005°06'311.9
2018-Jan-05 21:53N 43°09' E 005°03'410.9
2018-Jan-05 21:30N 43°13' E 005°01'611.4
2018-Jan-05 21:00N 43°19' E 004°59'5 9.4
2018-Jan-05 20:30N 43°23' E 004°57'5 9.2
2018-Jan-05 20:00N 43°25' E 004°51'0 0.0
2018-Jan-05 19:30N 43°24' E 004°51'0 0.0
2018-Jan-05 19:00N 43°24' E 004°51'0 0.0
2018-Jan-05 18:30N 43°25' E 004°51'0 0.0
2018-Jan-05 18:00N 43°24' E 004°51'0 0.0
2018-Jan-05 17:30N 43°25' E 004°51'0 0.0
2018-Jan-05 17:00N 43°24' E 004°51'0 0.0
2018-Jan-05 16:30N 43°24' E 004°51'0 0.0
2018-Jan-05 16:00N 43°25' E 004°51'0 0.0
2018-Jan-05 15:30N 43°24' E 004°51'0 0.0
2018-Jan-05 15:00N 43°24' E 004°51'0 0.0
2018-Jan-05 14:30N 43°24' E 004°51'0 0.0
2018-Jan-05 14:00N 43°25' E 004°51'0 0.0
2018-Jan-05 13:30N 43°25' E 004°51'0 0.0
2018-Jan-05 13:00N 43°25' E 004°51'0 0.0
2018-Jan-05 12:30N 43°24' E 004°51'0 0.0
2018-Jan-05 12:00N 43°24' E 004°51'0 0.0
2018-Jan-05 11:27N 43°24' E 004°51'0 0.0
2018-Jan-05 11:00N 43°24' E 004°51'0 0.0
2018-Jan-05 10:30N 43°24' E 004°51'0 0.0
2018-Jan-05 10:00N 43°24' E 004°51'0 0.0
2018-Jan-05 09:30N 43°24' E 004°51'0 0.0
2018-Jan-05 09:00N 43°25' E 004°51'0 0.0
2018-Jan-05 08:30N 43°24' E 004°51'0 0.0
2018-Jan-05 08:00N 43°24' E 004°51'0 0.0
2018-Jan-05 07:30N 43°24' E 004°51'0 0.0
2018-Jan-05 07:00N 43°24' E 004°51'0 0.0
2018-Jan-05 06:30N 43°24' E 004°51'0 0.0
2018-Jan-05 06:00N 43°24' E 004°51'0 0.0
2018-Jan-05 05:30N 43°24' E 004°51'0 0.0
2018-Jan-05 05:00N 43°24' E 004°51'0 0.0
2018-Jan-05 04:30N 43°24' E 004°51'0 0.0
2018-Jan-05 04:00N 43°24' E 004°51'0 0.0
2018-Jan-05 03:30N 43°24' E 004°51'0 0.0
2018-Jan-05 03:00N 43°24' E 004°51'0 0.3
2018-Jan-05 02:30N 43°24' E 004°51'3 6.4
2018-Jan-05 02:00N 43°24' E 004°55'5 9.5
2018-Jan-05 01:30N 43°20' E 004°59'510.5
2018-Jan-05 01:00N 43°15' E 005°02'611.5
2018-Jan-05 00:30N 43°09' E 005°02'510.8
2018-Jan-05 00:00N 43°05' E 004°57'612.9
2018-Jan-04 23:30N 43°05' E 004°48'612.8
2018-Jan-04 23:00N 43°05' E 004°40'612.7
2018-Jan-04 22:30N 43°05' E 004°31'14810.2
2018-Jan-04 07:58N 41°17' E 002°15'4 7.9
2018-Jan-04 07:30N 41°18' E 002°10'1 0.1
2018-Jan-03 19:02N 41°19' E 002°11'0 5.6
2018-Jan-03 19:00N 41°19' E 002°11'0 0.4
2018-Jan-03 18:30N 41°19' E 002°12'0 0.2
2018-Jan-03 17:57N 41°19' E 002°12'0 0.1
2018-Jan-03 17:27N 41°19' E 002°12'0 0.0
2018-Jan-03 16:57N 41°19' E 002°12'0 0.0
2018-Jan-03 16:30N 41°19' E 002°12'0 0.0
2018-Jan-03 16:00N 41°19' E 002°12'0 0.0
2018-Jan-03 15:30N 41°19' E 002°12'0 0.0
2018-Jan-03 15:00N 41°19' E 002°12'0 0.0
2018-Jan-03 14:27N 41°19' E 002°12'0 0.0
2018-Jan-03 14:00N 41°18' E 002°12'0 0.0
2018-Jan-03 13:27N 41°18' E 002°12'0 0.2
2018-Jan-03 13:00N 41°19' E 002°12'0 0.0
2018-Jan-03 12:30N 41°19' E 002°12'0 0.1
2018-Jan-03 11:48N 41°19' E 002°12'0 0.1
2018-Jan-03 11:30N 41°18' E 002°12'0 0.1
2018-Jan-03 11:00N 41°19' E 002°12'0 0.1
2018-Jan-03 10:30N 41°18' E 002°12'0 0.0
2018-Jan-03 10:00N 41°19' E 002°12'0 0.0
2018-Jan-03 09:21N 41°19' E 002°12'0 0.1
2018-Jan-03 08:51N 41°19' E 002°12'0 0.0
2018-Jan-03 08:18N 41°19' E 002°12'0 0.0
2018-Jan-03 07:54N 41°19' E 002°12'0 0.0
2018-Jan-03 07:24N 41°19' E 002°12'0 0.0
2018-Jan-03 06:54N 41°19' E 002°12'0 0.1
2018-Jan-03 06:24N 41°19' E 002°12'0 0.1
2018-Jan-03 05:54N 41°19' E 002°12'0 0.0
2018-Jan-03 05:21N 41°19' E 002°12'0 0.1
2018-Jan-03 04:57N 41°19' E 002°12'0 0.1
2018-Jan-03 04:24N 41°18' E 002°12'0 0.1
2018-Jan-03 03:57N 41°19' E 002°12'0 0.1
2018-Jan-03 02:39N 41°18' E 002°12'0 0.0
2018-Jan-03 02:27N 41°18' E 002°12'0 0.2
2018-Jan-03 02:00N 41°18' E 002°12'2 2.9
2018-Jan-03 01:28N 41°17' E 002°12'511.9
2018-Jan-03 01:00N 41°12' E 002°09'713.2
2018-Jan-03 00:30N 41°07' E 002°04'713.4
2018-Jan-03 00:00N 41°02' E 001°58'713.4
2018-Jan-02 23:30N 40°57' E 001°52'612.6
2018-Jan-02 23:00N 40°52' E 001°47'  

Dump ship's entire track history